createdAt,value
2018-12-06T00:00:15.507Z,7.00
2018-12-06T00:01:15.511Z,6.93
2018-12-06T00:02:15.529Z,6.87
2018-12-06T00:03:15.545Z,6.89
2018-12-06T00:04:15.565Z,6.85
2018-12-06T00:05:15.579Z,6.79
2018-12-06T00:06:15.597Z,6.88
2018-12-06T00:07:15.613Z,6.92
2018-12-06T00:08:15.628Z,6.95
2018-12-06T00:09:15.777Z,7.05
2018-12-06T00:10:15.666Z,6.92
2018-12-06T00:11:15.674Z,6.97
2018-12-06T00:12:15.692Z,7.06
2018-12-06T00:13:15.722Z,6.81
2018-12-06T00:14:15.723Z,6.82
2018-12-06T00:15:15.740Z,6.99
2018-12-06T00:16:15.752Z,7.03
2018-12-06T00:17:15.776Z,7.13
2018-12-06T00:18:15.793Z,6.87
2018-12-06T00:19:15.817Z,6.92
2018-12-06T00:20:15.823Z,6.79
2018-12-06T00:21:15.839Z,6.79
2018-12-06T00:22:15.858Z,6.85
2018-12-06T00:23:15.871Z,6.93
2018-12-06T00:24:15.931Z,6.93
2018-12-06T00:25:15.904Z,6.97
2018-12-06T00:26:15.927Z,7.00
2018-12-06T00:27:15.933Z,6.88
2018-12-06T00:28:15.953Z,6.89
2018-12-06T00:29:15.976Z,6.89
2018-12-06T00:30:15.987Z,7.02
2018-12-06T00:31:16.008Z,7.07
2018-12-06T00:32:16.022Z,6.93
2018-12-06T00:33:16.033Z,6.93
2018-12-06T00:34:16.050Z,6.92
2018-12-06T00:35:16.066Z,7.02
2018-12-06T00:36:16.077Z,7.13
2018-12-06T00:37:16.099Z,7.00
2018-12-06T00:38:16.138Z,7.14
2018-12-06T00:39:16.128Z,7.11
2018-12-06T00:40:16.144Z,7.00
2018-12-06T00:41:16.163Z,7.11
2018-12-06T00:42:16.183Z,6.93
2018-12-06T00:43:16.200Z,7.06
2018-12-06T00:44:16.209Z,6.97
2018-12-06T00:45:16.231Z,6.78
2018-12-06T00:46:16.243Z,6.75
2018-12-06T00:47:16.262Z,6.89
2018-12-06T00:48:16.309Z,6.88
2018-12-06T00:49:16.292Z,6.88
2018-12-06T00:50:16.314Z,6.88
2018-12-06T00:51:16.327Z,6.96
2018-12-06T00:52:16.341Z,7.00
2018-12-06T00:53:16.361Z,6.95
2018-12-06T00:54:16.379Z,7.03
2018-12-06T00:55:16.388Z,6.89
2018-12-06T00:56:16.421Z,6.89
2018-12-06T00:57:16.465Z,6.89
2018-12-06T00:58:16.439Z,6.89
2018-12-06T00:59:16.473Z,6.97
2018-12-06T01:00:16.494Z,6.87
2018-12-06T01:01:16.493Z,6.93
2018-12-06T01:02:16.504Z,6.81
2018-12-06T01:03:16.527Z,6.87
2018-12-06T01:04:16.538Z,6.99
2018-12-06T01:05:16.552Z,7.14
2018-12-06T01:06:16.570Z,6.97
2018-12-06T01:07:16.592Z,6.96
2018-12-06T01:08:16.604Z,6.85
2018-12-06T01:09:16.625Z,6.95
2018-12-06T01:10:16.642Z,6.96
2018-12-06T01:11:16.663Z,6.95
2018-12-06T01:12:16.683Z,6.99
2018-12-06T01:13:16.693Z,7.05
2018-12-06T01:14:16.701Z,7.00
2018-12-06T01:15:16.718Z,7.02
2018-12-06T01:16:16.731Z,7.03
2018-12-06T01:17:16.759Z,7.07
2018-12-06T01:18:16.770Z,6.99
2018-12-06T01:19:16.785Z,6.97
2018-12-06T01:20:16.815Z,6.95
2018-12-06T01:21:16.832Z,7.11
2018-12-06T01:22:16.834Z,7.14
2018-12-06T01:23:16.855Z,7.15
2018-12-06T01:24:16.869Z,7.17
2018-12-06T01:25:16.882Z,7.15
2018-12-06T01:26:16.895Z,7.20
2018-12-06T01:27:16.912Z,7.28
2018-12-06T01:28:16.936Z,7.14
2018-12-06T01:29:16.944Z,7.13
2018-12-06T01:30:16.967Z,7.17
2018-12-06T01:31:16.980Z,7.15
2018-12-06T01:32:17.001Z,7.20
2018-12-06T01:33:17.012Z,7.32
2018-12-06T01:34:17.033Z,7.39
2018-12-06T01:35:17.053Z,7.36
2018-12-06T01:36:17.101Z,7.31
2018-12-06T01:37:17.075Z,7.20
2018-12-06T01:38:17.091Z,7.31
2018-12-06T01:39:17.111Z,7.31
2018-12-06T01:40:17.135Z,7.20
2018-12-06T01:41:17.147Z,7.11
2018-12-06T01:42:17.159Z,7.13
2018-12-06T01:43:17.180Z,7.21
2018-12-06T01:44:17.195Z,7.18
2018-12-06T01:45:17.210Z,7.25
2018-12-06T01:46:17.227Z,7.33
2018-12-06T01:47:17.269Z,7.35
2018-12-06T01:48:17.261Z,7.39
2018-12-06T01:49:17.272Z,7.32
2018-12-06T01:50:17.292Z,7.28
2018-12-06T01:51:17.310Z,7.15
2018-12-06T01:52:17.331Z,7.13
2018-12-06T01:53:17.343Z,7.21
2018-12-06T01:54:17.355Z,7.18
2018-12-06T01:55:17.375Z,7.20
2018-12-06T01:56:17.392Z,7.42
2018-12-06T01:57:17.535Z,7.40
2018-12-06T01:58:17.421Z,7.43
2018-12-06T01:59:17.487Z,7.36
2018-12-06T02:00:17.456Z,7.24
2018-12-06T02:01:17.480Z,7.15
2018-12-06T02:02:17.494Z,7.18
2018-12-06T02:03:17.505Z,7.32
2018-12-06T02:04:17.520Z,7.36
2018-12-06T02:05:17.547Z,7.45
2018-12-06T02:06:17.577Z,7.50
2018-12-06T02:07:17.578Z,7.53
2018-12-06T02:08:17.590Z,7.47
2018-12-06T02:09:17.607Z,7.39
2018-12-06T02:10:17.622Z,7.43
2018-12-06T02:11:17.636Z,7.47
2018-12-06T02:12:17.796Z,7.45
2018-12-06T02:13:17.672Z,7.57
2018-12-06T02:14:17.685Z,7.56
2018-12-06T02:15:17.705Z,7.61
2018-12-06T02:16:17.731Z,7.69
2018-12-06T02:17:17.775Z,7.61
2018-12-06T02:18:17.786Z,7.66
2018-12-06T02:19:17.775Z,7.63
2018-12-06T02:20:17.786Z,7.51
2018-12-06T02:21:17.807Z,7.35
2018-12-06T02:22:17.832Z,7.32
2018-12-06T02:23:17.853Z,7.35
2018-12-06T02:24:17.867Z,7.45
2018-12-06T02:25:17.878Z,7.33
2018-12-06T02:26:17.888Z,7.33
2018-12-06T02:27:17.908Z,7.53
2018-12-06T02:28:17.945Z,7.48
2018-12-06T02:29:17.946Z,7.53
2018-12-06T02:30:17.957Z,7.50
2018-12-06T02:31:17.984Z,7.43
2018-12-06T02:32:17.986Z,7.42
2018-12-06T02:33:18.008Z,7.39
2018-12-06T02:34:18.019Z,7.43
2018-12-06T02:35:18.053Z,7.50
2018-12-06T02:36:18.059Z,7.40
2018-12-06T02:37:18.073Z,7.51
2018-12-06T02:38:18.095Z,7.56
2018-12-06T02:39:18.123Z,7.47
2018-12-06T02:40:18.127Z,7.47
2018-12-06T02:41:18.142Z,7.38
2018-12-06T02:42:18.163Z,7.54
2018-12-06T02:43:18.174Z,7.50
2018-12-06T02:44:18.188Z,7.38
2018-12-06T02:45:18.206Z,7.33
2018-12-06T02:46:18.227Z,7.33
2018-12-06T02:47:18.241Z,7.32
2018-12-06T02:48:18.256Z,7.38
2018-12-06T02:49:18.299Z,7.38
2018-12-06T02:50:18.315Z,7.36
2018-12-06T02:51:18.304Z,7.32
2018-12-06T02:52:18.364Z,7.39
2018-12-06T02:53:18.341Z,7.47
2018-12-06T02:54:18.359Z,7.48
2018-12-06T02:55:18.373Z,7.45
2018-12-06T02:56:18.388Z,7.51
2018-12-06T02:57:18.405Z,7.32
2018-12-06T02:58:18.422Z,7.35
2018-12-06T02:59:18.439Z,7.39
2018-12-06T03:00:18.484Z,7.42
2018-12-06T03:01:18.478Z,7.48
2018-12-06T03:02:18.490Z,7.51
2018-12-06T03:03:18.508Z,7.57
2018-12-06T03:04:18.520Z,7.51
2018-12-06T03:05:18.545Z,7.51
2018-12-06T03:06:18.564Z,7.60
2018-12-06T03:07:18.577Z,7.60
2018-12-06T03:08:18.599Z,7.63
2018-12-06T03:09:18.604Z,7.61
2018-12-06T03:10:18.622Z,7.48
2018-12-06T03:11:18.643Z,7.53
2018-12-06T03:12:18.674Z,7.45
2018-12-06T03:13:18.674Z,7.32
2018-12-06T03:14:18.704Z,7.38
2018-12-06T03:15:18.708Z,7.45
2018-12-06T03:16:18.741Z,7.31
2018-12-06T03:17:18.742Z,7.40
2018-12-06T03:18:18.757Z,7.56
2018-12-06T03:19:18.783Z,7.51
2018-12-06T03:20:18.808Z,7.50
2018-12-06T03:21:18.809Z,7.33
2018-12-06T03:22:18.839Z,7.48
2018-12-06T03:23:18.847Z,7.47
2018-12-06T03:24:18.879Z,7.33
2018-12-06T03:25:18.889Z,7.24
2018-12-06T03:26:18.893Z,7.28
2018-12-06T03:27:18.910Z,7.25
2018-12-06T03:28:18.932Z,7.25
2018-12-06T03:29:18.946Z,7.39
2018-12-06T03:30:18.963Z,7.36
2018-12-06T03:31:18.975Z,7.28
2018-12-06T03:32:18.992Z,7.36
2018-12-06T03:33:19.012Z,7.25
2018-12-06T03:34:19.024Z,7.29
2018-12-06T03:35:19.047Z,7.20
2018-12-06T03:36:19.058Z,7.31
2018-12-06T03:37:19.098Z,7.14
2018-12-06T03:38:19.097Z,7.00
2018-12-06T03:39:19.113Z,7.15
2018-12-06T03:40:19.133Z,7.18
2018-12-06T03:41:19.143Z,7.29
2018-12-06T03:42:19.159Z,7.33
2018-12-06T03:43:19.173Z,7.23
2018-12-06T03:44:19.202Z,7.29
2018-12-06T03:45:19.220Z,7.18
2018-12-06T03:46:19.229Z,7.17
2018-12-06T03:47:19.242Z,7.18
2018-12-06T03:48:19.261Z,7.25
2018-12-06T03:49:19.275Z,7.39
2018-12-06T03:50:19.291Z,7.24
2018-12-06T03:51:19.316Z,7.11
2018-12-06T03:52:19.332Z,7.14
2018-12-06T03:53:19.347Z,7.20
2018-12-06T03:54:19.409Z,7.13
2018-12-06T03:55:19.377Z,7.11
2018-12-06T03:56:19.389Z,7.00
2018-12-06T03:57:19.423Z,6.95
2018-12-06T03:58:19.429Z,6.99
2018-12-06T03:59:19.447Z,7.15
2018-12-06T04:00:19.452Z,7.14
2018-12-06T04:01:19.485Z,7.18
2018-12-06T04:02:19.495Z,7.11
2018-12-06T04:03:19.512Z,7.17
2018-12-06T04:04:19.522Z,6.92
2018-12-06T04:05:19.538Z,7.07
2018-12-06T04:06:19.562Z,7.17
2018-12-06T04:07:19.571Z,7.18
2018-12-06T04:08:19.599Z,7.18
2018-12-06T04:09:19.605Z,7.20
2018-12-06T04:10:19.631Z,7.15
2018-12-06T04:11:19.642Z,7.32
2018-12-06T04:12:19.659Z,7.29
2018-12-06T04:13:19.669Z,7.20
2018-12-06T04:14:19.686Z,7.21
2018-12-06T04:15:19.708Z,7.15
2018-12-06T04:16:19.723Z,7.25
2018-12-06T04:17:19.740Z,7.20
2018-12-06T04:18:19.761Z,7.17
2018-12-06T04:19:19.777Z,7.17
2018-12-06T04:20:19.787Z,7.14
2018-12-06T04:21:19.800Z,7.14
2018-12-06T04:22:19.818Z,7.07
2018-12-06T04:23:19.831Z,7.14
2018-12-06T04:24:19.853Z,7.10
2018-12-06T04:25:19.869Z,7.18
2018-12-06T04:26:19.886Z,7.25
2018-12-06T04:27:19.905Z,7.36
2018-12-06T04:28:19.917Z,7.33
2018-12-06T04:29:19.933Z,7.42
2018-12-06T04:30:19.950Z,7.31
2018-12-06T04:31:19.973Z,7.42
2018-12-06T04:32:19.993Z,7.35
2018-12-06T04:33:20.004Z,7.48
2018-12-06T04:34:20.019Z,7.51
2018-12-06T04:35:20.027Z,7.50
2018-12-06T04:36:20.052Z,7.47
2018-12-06T04:37:20.078Z,7.40
2018-12-06T04:38:20.081Z,7.48
2018-12-06T04:39:20.096Z,7.50
2018-12-06T04:40:20.112Z,7.61
2018-12-06T04:41:20.135Z,7.61
2018-12-06T04:42:20.149Z,7.63
2018-12-06T04:43:20.170Z,7.50
2018-12-06T04:44:20.180Z,7.66
2018-12-06T04:45:20.200Z,7.47
2018-12-06T04:46:20.247Z,7.61
2018-12-06T04:47:20.235Z,7.51
2018-12-06T04:48:22.202Z,7.57
2018-12-06T04:49:20.275Z,7.51
2018-12-06T04:50:20.282Z,7.66
2018-12-06T04:51:20.300Z,7.58
2018-12-06T04:52:20.315Z,7.69
2018-12-06T04:53:20.341Z,7.75
2018-12-06T04:54:20.344Z,7.76
2018-12-06T04:55:20.365Z,7.75
2018-12-06T04:56:20.384Z,7.77
2018-12-06T04:57:20.400Z,7.69
2018-12-06T04:58:20.427Z,7.67
2018-12-06T04:59:20.432Z,7.67
2018-12-06T05:00:20.452Z,7.47
2018-12-06T05:01:20.500Z,7.47
2018-12-06T05:02:20.492Z,7.51
2018-12-06T05:03:20.499Z,7.51
2018-12-06T05:04:20.519Z,7.56
2018-12-06T05:05:20.540Z,7.47
2018-12-06T05:06:20.549Z,7.38
2018-12-06T05:07:20.566Z,7.35
2018-12-06T05:08:20.579Z,7.31
2018-12-06T05:09:20.600Z,7.28
2018-12-06T05:10:20.624Z,7.29
2018-12-06T05:11:20.636Z,7.25
2018-12-06T05:12:20.650Z,7.36
2018-12-06T05:13:20.746Z,7.40
2018-12-06T05:14:21.321Z,7.35
2018-12-06T05:15:20.702Z,7.43
2018-12-06T05:16:20.717Z,7.36
2018-12-06T05:17:20.743Z,7.31
2018-12-06T05:18:20.755Z,7.32
2018-12-06T05:19:20.770Z,7.38
2018-12-06T05:20:20.785Z,7.33
2018-12-06T05:21:20.806Z,7.32
2018-12-06T05:22:20.829Z,7.39
2018-12-06T05:23:20.835Z,7.36
2018-12-06T05:24:20.848Z,7.31
2018-12-06T05:25:20.866Z,7.24
2018-12-06T05:26:20.881Z,7.39
2018-12-06T05:27:20.903Z,7.45
2018-12-06T05:28:20.918Z,7.53
2018-12-06T05:29:20.933Z,7.53
2018-12-06T05:30:20.955Z,7.61
2018-12-06T05:31:20.965Z,7.56
2018-12-06T05:32:20.979Z,7.43
2018-12-06T05:33:21.007Z,7.47
2018-12-06T05:34:21.157Z,7.36
2018-12-06T05:35:21.031Z,7.35
2018-12-06T05:36:21.051Z,7.45
2018-12-06T05:37:21.077Z,7.39
2018-12-06T05:38:21.174Z,7.39
2018-12-06T05:39:21.098Z,7.32
2018-12-06T05:40:21.116Z,7.32
2018-12-06T05:41:21.142Z,7.33
2018-12-06T05:42:21.146Z,7.32
2018-12-06T05:43:21.168Z,7.25
2018-12-06T05:44:21.184Z,7.24
2018-12-06T05:45:21.212Z,7.25
2018-12-06T05:46:21.225Z,7.18
2018-12-06T05:47:21.232Z,7.29
2018-12-06T05:48:21.245Z,7.24
2018-12-06T05:49:21.261Z,7.31
2018-12-06T05:50:21.314Z,7.21
2018-12-06T05:51:21.298Z,7.39
2018-12-06T05:52:21.311Z,7.36
2018-12-06T05:53:21.332Z,7.32
2018-12-06T05:54:21.347Z,7.40
2018-12-06T05:55:21.366Z,7.40
2018-12-06T05:56:21.399Z,7.40
2018-12-06T05:57:21.394Z,7.45
2018-12-06T05:58:21.420Z,7.45
2018-12-06T05:59:21.425Z,7.48
2018-12-06T06:00:21.444Z,7.53
2018-12-06T06:01:21.464Z,7.50
2018-12-06T06:02:21.482Z,7.51
2018-12-06T06:03:21.503Z,7.67
2018-12-06T06:04:21.517Z,7.58
2018-12-06T06:05:21.532Z,7.75
2018-12-06T06:06:21.558Z,7.63
2018-12-06T06:07:21.587Z,7.66
2018-12-06T06:08:21.579Z,7.66
2018-12-06T06:09:21.598Z,7.58
2018-12-06T06:10:21.618Z,7.53
2018-12-06T06:11:21.634Z,7.66
2018-12-06T06:12:21.651Z,7.67
2018-12-06T06:13:21.666Z,7.54
2018-12-06T06:14:21.691Z,7.53
2018-12-06T06:15:21.703Z,7.54
2018-12-06T06:16:21.709Z,7.72
2018-12-06T06:17:21.732Z,7.79
2018-12-06T06:18:21.746Z,7.94
2018-12-06T06:19:21.762Z,7.83
2018-12-06T06:20:21.782Z,7.82
2018-12-06T06:21:21.795Z,7.85
2018-12-06T06:22:21.810Z,7.77
2018-12-06T06:23:21.839Z,7.98
2018-12-06T06:24:21.850Z,7.82
2018-12-06T06:25:21.859Z,7.76
2018-12-06T06:26:21.887Z,7.77
2018-12-06T06:27:21.891Z,7.82
2018-12-06T06:28:21.914Z,7.87
2018-12-06T06:29:21.924Z,7.83
2018-12-06T06:30:21.951Z,7.75
2018-12-06T06:31:21.966Z,7.77
2018-12-06T06:32:21.976Z,7.76
2018-12-06T06:33:21.992Z,7.76
2018-12-06T06:34:22.009Z,8.03
2018-12-06T06:35:22.174Z,8.10
2018-12-06T06:36:22.049Z,8.18
2018-12-06T06:37:22.062Z,8.19
2018-12-06T06:38:22.074Z,7.98
2018-12-06T06:39:22.099Z,8.08
2018-12-06T06:40:22.242Z,8.10
2018-12-06T06:41:22.132Z,8.16
2018-12-06T06:42:22.153Z,8.19
2018-12-06T06:43:22.164Z,8.20
2018-12-06T06:44:22.180Z,8.23
2018-12-06T06:45:22.202Z,8.30
2018-12-06T06:46:22.216Z,8.38
2018-12-06T06:47:22.243Z,8.36
2018-12-06T06:48:22.248Z,8.52
2018-12-06T06:49:22.275Z,8.44
2018-12-06T06:50:22.286Z,8.49
2018-12-06T06:51:22.302Z,8.41
2018-12-06T06:52:22.322Z,8.44
2018-12-06T06:53:22.335Z,8.41
2018-12-06T06:54:22.352Z,8.42
2018-12-06T06:55:22.368Z,8.31
2018-12-06T06:56:22.386Z,8.48
2018-12-06T06:57:22.404Z,8.44
2018-12-06T06:58:22.426Z,8.46
2018-12-06T06:59:25.975Z,8.34
2018-12-06T07:00:22.448Z,8.38
2018-12-06T07:01:22.466Z,8.28
2018-12-06T07:02:22.490Z,8.33
2018-12-06T07:03:22.513Z,8.38
2018-12-06T07:04:22.522Z,8.34
2018-12-06T07:05:22.555Z,8.33
2018-12-06T07:06:22.561Z,8.24
2018-12-06T07:07:22.569Z,8.34
2018-12-06T07:08:22.595Z,8.30
2018-12-06T07:09:22.609Z,8.37
2018-12-06T07:10:22.631Z,8.33
2018-12-06T07:11:22.640Z,8.24
2018-12-06T07:12:22.678Z,8.31
2018-12-06T07:13:22.678Z,8.24
2018-12-06T07:14:22.705Z,8.09
2018-12-06T07:15:22.713Z,8.19
2018-12-06T07:16:22.733Z,8.13
2018-12-06T07:17:22.742Z,8.27
2018-12-06T07:18:22.764Z,8.34
2018-12-06T07:19:22.780Z,8.24
2018-12-06T07:20:22.808Z,8.27
2018-12-06T07:21:22.821Z,8.16
2018-12-06T07:22:22.844Z,8.15
2018-12-06T07:23:22.846Z,8.16
2018-12-06T07:24:22.870Z,8.16
2018-12-06T07:25:22.887Z,8.20
2018-12-06T07:26:22.903Z,8.12
2018-12-06T07:27:22.926Z,7.93
2018-12-06T07:28:22.945Z,8.01
2018-12-06T07:29:22.971Z,8.16
2018-12-06T07:30:23.453Z,8.18
2018-12-06T07:31:22.991Z,8.19
2018-12-06T07:32:23.006Z,8.26
2018-12-06T07:33:23.028Z,8.27
2018-12-06T07:34:23.103Z,8.26
2018-12-06T07:35:23.063Z,8.33
2018-12-06T07:36:23.074Z,8.34
2018-12-06T07:37:23.089Z,8.36
2018-12-06T07:38:23.105Z,8.30
2018-12-06T07:39:23.123Z,8.28
2018-12-06T07:40:23.150Z,8.19
2018-12-06T07:41:23.159Z,8.31
2018-12-06T07:42:23.178Z,8.31
2018-12-06T07:43:23.190Z,8.37
2018-12-06T07:44:23.208Z,8.42
2018-12-06T07:45:23.231Z,8.38
2018-12-06T07:46:23.247Z,8.38
2018-12-06T07:47:23.256Z,8.42
2018-12-06T07:48:23.277Z,8.30
2018-12-06T07:49:23.298Z,8.15
2018-12-06T07:50:23.314Z,8.10
2018-12-06T07:51:23.332Z,8.15
2018-12-06T07:52:23.352Z,8.38
2018-12-06T07:53:23.399Z,8.48
2018-12-06T07:54:23.397Z,8.48
2018-12-06T07:55:23.399Z,8.38
2018-12-06T07:56:23.454Z,8.46
2018-12-06T07:57:23.472Z,8.41
2018-12-06T07:58:23.456Z,8.36
2018-12-06T07:59:23.472Z,8.45
2018-12-06T08:00:23.486Z,8.38
2018-12-06T08:01:23.525Z,8.51
2018-12-06T08:02:23.538Z,8.38
2018-12-06T08:03:23.537Z,8.46
2018-12-06T08:04:23.557Z,8.51
2018-12-06T08:05:23.577Z,8.49
2018-12-06T08:06:23.589Z,8.48
2018-12-06T08:07:23.603Z,8.44
2018-12-06T08:08:23.631Z,8.48
2018-12-06T08:09:23.666Z,8.48
2018-12-06T08:10:23.660Z,8.53
2018-12-06T08:11:23.690Z,8.45
2018-12-06T08:12:23.692Z,8.52
2018-12-06T08:13:23.709Z,8.55
2018-12-06T08:14:23.738Z,8.55
2018-12-06T08:15:23.745Z,8.45
2018-12-06T08:16:23.760Z,8.51
2018-12-06T08:17:23.926Z,8.52
2018-12-06T08:18:23.802Z,8.60
2018-12-06T08:19:23.826Z,8.71
2018-12-06T08:20:23.842Z,8.69
2018-12-06T08:21:23.854Z,8.70
2018-12-06T08:22:23.867Z,8.71
2018-12-06T08:23:23.886Z,8.61
2018-12-06T08:24:23.903Z,8.63
2018-12-06T08:25:23.920Z,8.51
2018-12-06T08:26:23.939Z,8.67
2018-12-06T08:27:23.964Z,8.74
2018-12-06T08:28:24.126Z,8.82
2018-12-06T08:29:24.005Z,8.91
2018-12-06T08:30:24.018Z,8.89
2018-12-06T08:31:24.044Z,8.85
2018-12-06T08:32:24.045Z,8.85
2018-12-06T08:33:24.063Z,8.71
2018-12-06T08:34:24.086Z,8.67
2018-12-06T08:35:24.097Z,8.60
2018-12-06T08:36:24.124Z,8.63
2018-12-06T08:37:24.134Z,8.87
2018-12-06T08:38:24.155Z,8.95
2018-12-06T08:39:24.165Z,8.95
2018-12-06T08:40:24.182Z,8.91
2018-12-06T08:41:24.200Z,8.94
2018-12-06T08:42:24.242Z,8.79
2018-12-06T08:43:24.245Z,8.74
2018-12-06T08:44:24.249Z,8.79
2018-12-06T08:45:24.311Z,8.67
2018-12-06T08:46:24.296Z,8.79
2018-12-06T08:47:24.309Z,8.97
2018-12-06T08:48:24.324Z,8.82
2018-12-06T08:49:24.343Z,8.76
2018-12-06T08:50:24.359Z,8.71
2018-12-06T08:51:24.393Z,8.63
2018-12-06T08:52:24.391Z,8.74
2018-12-06T08:53:24.420Z,8.79
2018-12-06T08:54:24.434Z,8.64
2018-12-06T08:55:24.481Z,8.58
2018-12-06T08:56:24.475Z,8.51
2018-12-06T08:57:24.503Z,8.45
2018-12-06T08:58:24.494Z,8.42
2018-12-06T08:59:24.512Z,8.44
2018-12-06T09:00:24.531Z,8.38
2018-12-06T09:01:24.558Z,8.42
2018-12-06T09:02:24.564Z,8.38
2018-12-06T09:03:24.587Z,8.34
2018-12-06T09:04:24.615Z,8.44
2018-12-06T09:05:24.622Z,8.44
2018-12-06T09:06:24.641Z,8.44
2018-12-06T09:07:24.657Z,8.42
2018-12-06T09:08:24.671Z,8.55
2018-12-06T09:09:24.688Z,8.51
2018-12-06T09:10:24.713Z,8.66
2018-12-06T09:11:24.722Z,8.70
2018-12-06T09:12:24.739Z,8.70
2018-12-06T09:13:24.770Z,8.76
2018-12-06T09:14:24.775Z,8.64
2018-12-06T09:15:24.792Z,8.58
2018-12-06T09:16:24.805Z,8.64
2018-12-06T09:17:24.836Z,8.53
2018-12-06T09:18:24.900Z,8.66
2018-12-06T09:19:24.887Z,8.67
2018-12-06T09:20:24.895Z,8.78
2018-12-06T09:21:24.895Z,8.79
2018-12-06T09:22:24.917Z,8.69
2018-12-06T09:23:24.943Z,8.81
2018-12-06T09:24:24.949Z,8.84
2018-12-06T09:25:24.963Z,9.03
2018-12-06T09:26:24.994Z,9.02
2018-12-06T09:27:24.997Z,9.11
2018-12-06T09:28:25.018Z,9.14
2018-12-06T09:29:25.034Z,9.02
2018-12-06T09:30:25.054Z,9.02
2018-12-06T09:31:25.076Z,8.99
2018-12-06T09:32:25.095Z,8.91
2018-12-06T09:33:25.105Z,8.84
2018-12-06T09:34:25.123Z,8.74
2018-12-06T09:35:25.139Z,8.78
2018-12-06T09:36:25.161Z,8.92
2018-12-06T09:37:25.177Z,8.97
2018-12-06T09:38:25.192Z,8.85
2018-12-06T09:39:25.210Z,8.81
2018-12-06T09:40:25.226Z,8.78
2018-12-06T09:41:25.255Z,8.81
2018-12-06T09:42:25.272Z,8.71
2018-12-06T09:43:25.282Z,8.71
2018-12-06T09:44:25.302Z,8.70
2018-12-06T09:45:25.318Z,8.64
2018-12-06T09:46:25.340Z,8.74
2018-12-06T09:47:25.349Z,8.78
2018-12-06T09:48:25.369Z,8.79
2018-12-06T09:49:25.391Z,8.74
2018-12-06T09:50:25.403Z,8.71
2018-12-06T09:51:25.424Z,8.82
2018-12-06T09:52:25.438Z,8.81
2018-12-06T09:53:25.501Z,8.88
2018-12-06T09:54:25.474Z,8.85
2018-12-06T09:55:25.490Z,9.00
2018-12-06T09:56:25.508Z,9.11
2018-12-06T09:57:25.528Z,9.08
2018-12-06T09:58:25.544Z,8.97
2018-12-06T09:59:25.572Z,9.02
2018-12-06T10:00:25.619Z,9.04
2018-12-06T10:01:25.603Z,9.13
2018-12-06T10:02:25.613Z,9.28
2018-12-06T10:03:25.682Z,9.29
2018-12-06T10:04:25.655Z,9.23
2018-12-06T10:05:25.672Z,9.22
2018-12-06T10:06:25.685Z,9.28
2018-12-06T10:07:25.701Z,9.37
2018-12-06T10:08:25.726Z,9.02
2018-12-06T10:09:25.811Z,9.10
2018-12-06T10:10:25.774Z,9.13
2018-12-06T10:11:25.774Z,9.18
2018-12-06T10:12:25.803Z,9.31
2018-12-06T10:13:25.812Z,9.37
2018-12-06T10:14:25.826Z,9.37
2018-12-06T10:15:25.845Z,9.36
2018-12-06T10:16:25.876Z,9.39
2018-12-06T10:17:25.882Z,9.39
2018-12-06T10:18:25.899Z,9.44
2018-12-06T10:19:25.922Z,9.46
2018-12-06T10:20:25.940Z,9.51
2018-12-06T10:21:25.956Z,9.58
2018-12-06T10:22:25.968Z,9.65
2018-12-06T10:23:25.986Z,9.48
2018-12-06T10:24:26.007Z,9.39
2018-12-06T10:25:26.035Z,9.36
2018-12-06T10:26:26.045Z,9.32
2018-12-06T10:27:26.064Z,9.28
2018-12-06T10:28:26.087Z,9.39
2018-12-06T10:29:26.096Z,9.36
2018-12-06T10:30:26.121Z,9.40
2018-12-06T10:31:26.130Z,9.39
2018-12-06T10:32:26.151Z,9.58
2018-12-06T10:33:26.163Z,9.61
2018-12-06T10:34:26.185Z,9.74
2018-12-06T10:35:26.200Z,9.79
2018-12-06T10:36:26.219Z,9.77
2018-12-06T10:37:26.236Z,9.74
2018-12-06T10:38:26.268Z,9.74
2018-12-06T10:39:26.282Z,9.79
2018-12-06T10:40:26.292Z,9.65
2018-12-06T10:41:26.310Z,9.65
2018-12-06T10:42:26.325Z,9.66
2018-12-06T10:43:26.345Z,9.64
2018-12-06T10:44:26.370Z,9.68
2018-12-06T10:45:26.384Z,9.76
2018-12-06T10:46:26.397Z,9.62
2018-12-06T10:47:26.413Z,9.59
2018-12-06T10:48:26.433Z,9.54
2018-12-06T10:49:26.453Z,9.68
2018-12-06T10:50:26.473Z,9.77
2018-12-06T10:51:26.491Z,9.65
2018-12-06T10:52:26.511Z,9.65
2018-12-06T10:53:26.530Z,9.55
2018-12-06T10:54:26.554Z,9.61
2018-12-06T10:55:26.562Z,9.62
2018-12-06T10:56:26.587Z,9.72
2018-12-06T10:57:26.596Z,9.82
2018-12-06T10:58:26.618Z,9.87
2018-12-06T10:59:26.637Z,9.86
2018-12-06T11:00:26.651Z,9.80
2018-12-06T11:01:26.671Z,9.92
2018-12-06T11:02:26.690Z,10.01
2018-12-06T11:03:26.704Z,9.92
2018-12-06T11:04:26.722Z,9.98
2018-12-06T11:05:26.749Z,10.01
2018-12-06T11:06:26.761Z,9.79
2018-12-06T11:07:26.782Z,9.87
2018-12-06T11:08:26.798Z,9.86
2018-12-06T11:09:26.820Z,9.84
2018-12-06T11:10:26.847Z,9.86
2018-12-06T11:11:26.858Z,9.86
2018-12-06T11:12:26.891Z,9.62
2018-12-06T11:13:26.897Z,9.50
2018-12-06T11:14:26.907Z,9.65
2018-12-06T11:15:26.940Z,9.66
2018-12-06T11:16:26.948Z,9.62
2018-12-06T11:17:26.965Z,9.61
2018-12-06T11:18:26.998Z,9.58
2018-12-06T11:19:27.000Z,9.58
2018-12-06T11:20:27.023Z,9.82
2018-12-06T11:21:27.034Z,9.76
2018-12-06T11:22:27.053Z,9.76
2018-12-06T11:23:27.068Z,9.84
2018-12-06T11:24:27.094Z,9.77
2018-12-06T11:25:27.107Z,9.76
2018-12-06T11:26:27.123Z,9.77
2018-12-06T11:27:27.141Z,9.77
2018-12-06T11:28:27.166Z,9.83
2018-12-06T11:29:27.179Z,9.83
2018-12-06T11:30:27.197Z,9.74
2018-12-06T11:31:27.216Z,9.76
2018-12-06T11:32:27.237Z,9.73
2018-12-06T11:33:27.249Z,9.64
2018-12-06T11:34:27.266Z,9.73
2018-12-06T11:35:27.287Z,9.82
2018-12-06T11:36:27.320Z,9.98
2018-12-06T11:37:27.326Z,9.92
2018-12-06T11:38:27.354Z,9.87
2018-12-06T11:39:27.357Z,9.84
2018-12-06T11:40:27.378Z,9.89
2018-12-06T11:41:27.392Z,9.84
2018-12-06T11:42:27.415Z,9.86
2018-12-06T11:43:27.429Z,9.98
2018-12-06T11:44:27.451Z,10.04
2018-12-06T11:45:27.466Z,9.99
2018-12-06T11:46:27.482Z,9.83
2018-12-06T11:47:27.510Z,10.02
2018-12-06T11:48:27.524Z,10.04
2018-12-06T11:49:27.544Z,10.12
2018-12-06T11:50:27.559Z,10.10
2018-12-06T11:51:27.577Z,10.04
2018-12-06T11:52:27.596Z,10.07
2018-12-06T11:53:27.612Z,10.12
2018-12-06T11:54:27.630Z,10.20
2018-12-06T11:55:27.777Z,10.28
2018-12-06T11:56:27.665Z,10.31
2018-12-06T11:57:27.694Z,10.25
2018-12-06T11:58:27.704Z,10.26
2018-12-06T11:59:27.731Z,10.42
2018-12-06T12:00:27.755Z,10.38
2018-12-06T12:01:27.781Z,10.41
2018-12-06T12:02:27.778Z,10.38
2018-12-06T12:03:27.794Z,10.30
2018-12-06T12:04:27.826Z,10.48
2018-12-06T12:05:27.844Z,10.54
2018-12-06T12:06:27.850Z,10.54
2018-12-06T12:07:27.871Z,10.61
2018-12-06T12:08:27.928Z,10.59
2018-12-06T12:09:27.908Z,10.60
2018-12-06T12:10:27.924Z,10.67
2018-12-06T12:11:27.939Z,10.67
2018-12-06T12:12:27.961Z,10.67
2018-12-06T12:13:27.986Z,10.63
2018-12-06T12:14:28.021Z,10.67
2018-12-06T12:15:28.013Z,10.71
2018-12-06T12:16:28.035Z,10.60
2018-12-06T12:17:28.053Z,10.57
2018-12-06T12:18:28.069Z,10.71
2018-12-06T12:19:28.093Z,10.56
2018-12-06T12:20:28.104Z,10.46
2018-12-06T12:21:28.140Z,10.40
2018-12-06T12:22:28.157Z,10.42
2018-12-06T12:23:28.164Z,10.46
2018-12-06T12:24:28.177Z,10.37
2018-12-06T12:25:28.199Z,10.42
2018-12-06T12:26:28.217Z,10.40
2018-12-06T12:27:28.240Z,10.42
2018-12-06T12:28:28.261Z,10.44
2018-12-06T12:29:28.282Z,10.49
2018-12-06T12:30:28.295Z,10.60
2018-12-06T12:31:28.310Z,10.69
2018-12-06T12:32:28.332Z,10.69
2018-12-06T12:33:28.368Z,10.72
2018-12-06T12:34:28.371Z,10.79
2018-12-06T12:35:28.391Z,10.69
2018-12-06T12:36:28.402Z,10.64
2018-12-06T12:37:28.440Z,10.60
2018-12-06T12:38:28.445Z,10.51
2018-12-06T12:39:28.472Z,10.53
2018-12-06T12:40:28.486Z,10.61
2018-12-06T12:41:28.496Z,10.61
2018-12-06T12:42:28.514Z,10.63
2018-12-06T12:43:28.541Z,10.61
2018-12-06T12:44:28.562Z,10.78
2018-12-06T12:45:28.569Z,10.74
2018-12-06T12:46:28.593Z,10.89
2018-12-06T12:47:28.620Z,10.93
2018-12-06T12:48:28.636Z,10.86
2018-12-06T12:49:28.647Z,10.99
2018-12-06T12:50:28.676Z,10.96
2018-12-06T12:51:28.686Z,11.07
2018-12-06T12:52:28.703Z,11.12
2018-12-06T12:53:28.717Z,11.14
2018-12-06T12:54:28.741Z,11.14
2018-12-06T12:55:28.754Z,11.08
2018-12-06T12:56:28.777Z,11.15
2018-12-06T12:57:28.802Z,11.11
2018-12-06T12:58:28.822Z,11.15
2018-12-06T12:59:28.835Z,11.17
2018-12-06T13:00:28.849Z,11.11
2018-12-06T13:01:28.864Z,11.10
2018-12-06T13:02:28.888Z,11.19
2018-12-06T13:03:28.907Z,11.18
2018-12-06T13:04:28.928Z,11.07
2018-12-06T13:05:28.947Z,11.10
2018-12-06T13:06:28.958Z,11.15
2018-12-06T13:07:28.978Z,11.12
2018-12-06T13:08:29.007Z,11.14
2018-12-06T13:09:29.016Z,11.19
2018-12-06T13:10:29.037Z,11.27
2018-12-06T13:11:29.059Z,11.12
2018-12-06T13:12:29.074Z,11.14
2018-12-06T13:13:29.120Z,11.18
2018-12-06T13:14:29.110Z,11.15
2018-12-06T13:15:29.130Z,11.17